createdAt,value
2023-11-19T00:12:59.933Z,11.70
2023-11-19T00:20:33.648Z,9.95
2023-11-19T00:28:09.404Z,9.07
2023-11-19T00:35:44.339Z,9.23
2023-11-19T00:43:23.349Z,9.55
2023-11-19T00:50:57.315Z,9.75
2023-11-19T00:58:33.385Z,9.27
2023-11-19T01:06:07.770Z,10.27
2023-11-19T01:13:43.441Z,8.85
2023-11-19T01:21:17.444Z,9.15
2023-11-19T01:28:54.066Z,8.40
2023-11-19T01:36:28.097Z,11.40
2023-11-19T01:44:03.707Z,9.23
2023-11-19T01:51:37.951Z,7.93
2023-11-19T01:59:15.477Z,9.32
2023-11-19T02:06:50.788Z,7.43
2023-11-19T02:14:28.243Z,9.18
2023-11-19T02:22:02.918Z,6.82
2023-11-19T02:29:38.593Z,8.13
2023-11-19T02:37:12.756Z,7.35
2023-11-19T02:44:50.141Z,6.50
2023-11-19T02:52:24.454Z,8.95
2023-11-19T03:00:00.297Z,8.65
2023-11-19T03:07:34.542Z,9.32
2023-11-19T03:15:11.805Z,8.38
2023-11-19T03:22:47.568Z,9.55
2023-11-19T03:30:34.158Z,7.97
2023-11-19T03:38:08.586Z,7.88
2023-11-19T03:45:44.322Z,8.27
2023-11-19T03:53:18.451Z,8.95
2023-11-19T04:00:54.656Z,10.55
2023-11-19T04:08:28.987Z,8.55
2023-11-19T04:16:04.761Z,10.45
2023-11-19T04:23:41.697Z,9.27
2023-11-19T04:31:17.370Z,11.18
2023-11-19T04:38:52.742Z,8.80
2023-11-19T04:46:28.427Z,8.88
2023-11-19T04:54:02.406Z,10.38
2023-11-19T05:01:38.215Z,9.07
2023-11-19T05:09:14.527Z,9.10
2023-11-19T05:16:55.724Z,9.85
2023-11-19T05:24:31.886Z,9.75
2023-11-19T05:32:08.900Z,7.18
2023-11-19T05:39:42.775Z,9.48
2023-11-19T05:47:18.763Z,7.23
2023-11-19T05:54:54.394Z,8.32
2023-11-19T06:02:29.918Z,11.43
2023-11-19T06:10:04.933Z,12.65
2023-11-19T06:17:40.878Z,11.52
2023-11-19T06:25:16.058Z,13.07
2023-11-19T06:32:51.750Z,13.85
2023-11-19T06:40:26.469Z,18.15
2023-11-19T06:48:05.184Z,16.38
2023-11-19T06:55:39.647Z,20.08
2023-11-19T07:03:15.890Z,20.08
2023-11-19T07:10:50.068Z,25.67
2023-11-19T07:18:25.591Z,12.37
2023-11-19T07:25:59.652Z,9.07
2023-11-19T07:41:54.725Z,8.13
2023-11-19T07:49:34.756Z,8.68
2023-11-19T07:57:33.427Z,8.10
2023-11-19T08:05:11.415Z,5.63
2023-11-19T08:20:56.624Z,5.97
2023-11-19T08:28:32.752Z,6.22
2023-11-19T08:36:09.031Z,6.35
2023-11-19T08:44:29.148Z,6.78
2023-11-19T08:52:08.826Z,6.28
2023-11-19T08:59:47.460Z,5.85
2023-11-19T09:07:25.265Z,5.50
2023-11-19T09:15:02.334Z,5.00
2023-11-19T09:22:42.799Z,4.70
2023-11-19T09:30:31.849Z,3.95
2023-11-19T09:38:13.421Z,3.60
2023-11-19T09:45:54.949Z,5.95
2023-11-19T09:53:42.335Z,3.20
2023-11-19T10:09:06.639Z,3.53
2023-11-19T10:16:41.033Z,6.35
2023-11-19T10:32:22.453Z,2.97
2023-11-19T10:39:58.770Z,5.40
2023-11-19T10:47:37.822Z,7.40
2023-11-19T10:55:17.485Z,11.05
2023-11-19T11:02:53.440Z,14.27
2023-11-19T11:10:29.314Z,11.50
2023-11-19T11:18:06.740Z,13.68
2023-11-19T11:25:49.830Z,23.70
2023-11-19T11:33:29.306Z,11.32
2023-11-19T11:41:27.454Z,12.23
2023-11-19T11:49:05.333Z,13.55
2023-11-19T11:56:44.309Z,22.70
2023-11-19T12:04:19.048Z,10.75
2023-11-19T12:19:29.837Z,10.95
2023-11-19T12:27:06.576Z,20.55
2023-11-19T12:34:44.045Z,11.27
2023-11-19T12:42:17.971Z,20.88
2023-11-19T12:50:00.715Z,15.65
2023-11-19T12:57:44.142Z,20.67
2023-11-19T13:05:27.571Z,15.02
2023-11-19T13:13:05.288Z,35.00
2023-11-19T13:20:41.023Z,18.92
2023-11-19T13:28:14.873Z,20.13
2023-11-19T13:35:50.308Z,22.73
2023-11-19T13:43:25.427Z,24.92
2023-11-19T13:51:01.989Z,33.60
2023-11-19T13:58:38.244Z,15.68
2023-11-19T14:06:13.960Z,21.35
2023-11-19T14:13:50.759Z,24.65
2023-11-19T14:21:28.713Z,17.63
2023-11-19T14:36:56.569Z,35.78
2023-11-19T14:44:30.545Z,20.88
2023-11-19T14:59:42.673Z,19.63
2023-11-19T15:07:18.161Z,32.23
2023-11-19T15:14:52.367Z,14.23
2023-11-19T15:22:27.958Z,15.23
2023-11-19T15:30:01.887Z,13.55
2023-11-19T15:37:38.563Z,12.60
2023-11-19T15:45:14.992Z,16.95
2023-11-19T15:52:52.712Z,17.98
2023-11-19T16:00:29.048Z,15.32
2023-11-19T16:08:07.228Z,21.40
2023-11-19T16:15:41.158Z,19.17
2023-11-19T16:23:18.634Z,12.00
2023-11-19T16:30:53.444Z,11.30
2023-11-19T16:38:29.879Z,13.93
2023-11-19T16:46:05.198Z,15.23
2023-11-19T16:53:41.276Z,15.30
2023-11-19T17:01:17.355Z,10.15
2023-11-19T17:08:53.996Z,13.07
2023-11-19T17:16:28.004Z,11.48
2023-11-19T17:24:04.152Z,12.17
2023-11-19T17:31:38.219Z,13.85
2023-11-19T17:39:13.566Z,23.30
2023-11-19T17:46:47.660Z,17.30
2023-11-19T17:54:23.304Z,16.60
2023-11-19T18:01:58.454Z,22.98
2023-11-19T18:09:34.693Z,17.95
2023-11-19T18:17:17.503Z,23.15
2023-11-19T18:24:54.572Z,14.00
2023-11-19T18:32:32.656Z,10.85
2023-11-19T18:40:11.246Z,14.00
2023-11-19T18:47:45.485Z,13.13
2023-11-19T18:55:21.210Z,13.83
2023-11-19T19:10:33.635Z,17.60
2023-11-19T19:18:08.104Z,12.43
2023-11-19T19:25:44.159Z,13.80
2023-11-19T19:33:18.056Z,12.68
2023-11-19T19:40:53.381Z,18.97
2023-11-19T19:48:27.238Z,15.82
2023-11-19T19:56:03.193Z,13.63
2023-11-19T20:03:37.601Z,14.07
2023-11-19T20:11:13.982Z,10.10
2023-11-19T20:18:48.126Z,16.92
2023-11-19T20:26:24.246Z,10.87
2023-11-19T20:33:58.137Z,15.55
2023-11-19T20:41:34.015Z,13.90
2023-11-19T20:49:08.285Z,9.52
2023-11-19T20:56:43.909Z,9.80
2023-11-19T21:04:17.977Z,8.43
2023-11-19T21:11:53.896Z,10.07
2023-11-19T21:19:46.744Z,9.93
2023-11-19T21:27:23.397Z,8.38
2023-11-19T21:34:57.354Z,9.68
2023-11-19T21:42:34.988Z,8.63
2023-11-19T21:50:09.348Z,5.30
2023-11-19T21:57:44.748Z,7.30
2023-11-19T22:05:22.766Z,8.05
2023-11-19T22:12:58.784Z,8.02
2023-11-19T22:20:36.301Z,8.80
2023-11-19T22:28:13.034Z,10.13
2023-11-19T22:35:47.179Z,7.53
2023-11-19T22:43:23.630Z,8.87
2023-11-19T22:50:57.512Z,11.45
2023-11-19T22:58:33.048Z,10.73
2023-11-19T23:06:07.723Z,12.35
2023-11-19T23:13:42.936Z,12.35
2023-11-19T23:21:19.300Z,12.43
2023-11-19T23:29:03.222Z,6.05
2023-11-19T23:36:43.871Z,9.30
2023-11-19T23:44:21.992Z,12.13
2023-11-19T23:51:56.400Z,10.98
2023-11-19T23:59:31.838Z,6.93
